createdAt,value
2018-11-28T00:00:10.646Z,193.17
2018-11-28T00:03:11.689Z,228.37
2018-11-28T00:06:08.224Z,232.05
2018-11-28T00:09:06.605Z,197.95
2018-11-28T00:12:02.356Z,184.93
2018-11-28T00:15:02.549Z,200.43
2018-11-28T00:17:58.356Z,201.35
2018-11-28T00:20:58.604Z,218.60
2018-11-28T00:23:54.922Z,194.10
2018-11-28T00:26:51.061Z,202.13
2018-11-28T00:29:47.086Z,220.70
2018-11-28T00:32:43.119Z,260.57
2018-11-28T00:35:39.553Z,249.10
2018-11-28T00:38:35.582Z,256.32
2018-11-28T00:41:31.708Z,260.30
2018-11-28T00:44:27.736Z,245.97
2018-11-28T00:47:23.870Z,290.80
2018-11-28T00:50:30.547Z,272.20
2018-11-28T00:53:28.921Z,297.80
2018-11-28T00:56:25.047Z,314.23
2018-11-28T00:59:21.254Z,294.48
2018-11-28T01:02:17.704Z,343.00
2018-11-28T01:05:15.503Z,369.68
2018-11-28T01:08:12.503Z,354.82
2018-11-28T01:11:09.159Z,450.87
2018-11-28T01:14:05.562Z,575.22
2018-11-28T01:17:02.181Z,588.15
2018-11-28T01:20:07.807Z,583.92
2018-11-28T01:23:08.146Z,567.30
2018-11-28T01:26:04.691Z,556.97
2018-11-28T01:29:01.142Z,547.83
2018-11-28T01:31:57.811Z,520.33
2018-11-28T01:34:54.076Z,532.02
2018-11-28T01:37:50.439Z,544.42
2018-11-28T01:40:46.982Z,568.45
2018-11-28T01:43:43.478Z,574.58
2018-11-28T01:46:40.180Z,571.65
2018-11-28T01:49:36.680Z,585.10
2018-11-28T01:52:35.166Z,607.40
2018-11-28T01:55:31.731Z,601.40
2018-11-28T01:58:27.912Z,611.33
2018-11-28T02:01:23.711Z,585.23
2018-11-28T02:04:20.194Z,611.67
2018-11-28T02:07:16.967Z,603.95
2018-11-28T02:10:18.494Z,610.85
2018-11-28T02:13:14.885Z,607.45
2018-11-28T02:16:10.834Z,612.02
2018-11-28T02:19:07.585Z,611.38
2018-11-28T02:22:04.715Z,599.15
2018-11-28T02:25:03.362Z,597.60
2018-11-28T02:27:59.401Z,650.98
2018-11-28T02:31:00.409Z,649.20
2018-11-28T02:33:57.143Z,628.23
2018-11-28T02:36:53.432Z,623.80
2018-11-28T02:39:50.396Z,584.77
2018-11-28T02:42:46.795Z,558.65
2018-11-28T02:45:43.428Z,558.45
2018-11-28T02:48:43.259Z,503.40
2018-11-28T02:51:37.859Z,506.10
2018-11-28T02:54:33.582Z,529.67
2018-11-28T02:57:30.820Z,520.57
2018-11-28T03:00:35.398Z,539.97
2018-11-28T03:03:31.953Z,521.98
2018-11-28T03:06:28.391Z,542.30
2018-11-28T03:09:25.193Z,535.85
2018-11-28T03:12:21.696Z,490.23
2018-11-28T03:15:37.760Z,444.40
2018-11-28T03:18:34.130Z,439.65
2018-11-28T03:21:30.274Z,426.40
2018-11-28T03:24:26.510Z,443.55
2018-11-28T03:27:23.351Z,412.62
2018-11-28T03:30:23.391Z,410.55
2018-11-28T03:33:19.578Z,368.05
2018-11-28T03:36:15.845Z,360.55
2018-11-28T03:39:14.613Z,348.02
2018-11-28T03:42:13.304Z,359.45
2018-11-28T03:45:13.300Z,315.95
2018-11-28T03:48:09.590Z,284.67
2018-11-28T03:51:06.063Z,290.05
2018-11-28T03:54:02.736Z,265.07
2018-11-28T03:56:59.195Z,276.15
2018-11-28T03:59:55.999Z,246.80
2018-11-28T04:02:54.804Z,245.95
2018-11-28T04:05:51.508Z,272.50
2018-11-28T04:08:48.508Z,241.65
2018-11-28T04:11:45.422Z,247.22
2018-11-28T04:14:44.314Z,549.85
2018-11-28T04:17:40.816Z,232.30
2018-11-28T04:20:37.019Z,212.75
2018-11-28T04:23:33.661Z,230.22
2018-11-28T04:26:30.709Z,228.88
2018-11-28T04:29:26.970Z,205.92
2018-11-28T04:32:24.029Z,197.02
2018-11-28T04:35:21.266Z,199.65
2018-11-28T04:38:18.056Z,199.00
2018-11-28T04:41:14.216Z,194.00
2018-11-28T04:44:24.668Z,210.10
2018-11-28T04:47:22.282Z,201.32
2018-11-28T04:50:19.121Z,202.30
2018-11-28T04:53:19.632Z,185.70
2018-11-28T04:56:16.143Z,189.67
2018-11-28T04:59:12.748Z,197.55
2018-11-28T05:02:10.090Z,192.77
2018-11-28T05:05:08.762Z,175.12
2018-11-28T05:08:02.478Z,201.65
2018-11-28T05:11:01.207Z,188.07
2018-11-28T05:14:43.999Z,169.32
2018-11-28T05:17:42.033Z,194.40
2018-11-28T05:20:49.264Z,194.22
2018-11-28T05:23:48.989Z,180.65
2018-11-28T05:26:56.705Z,161.32
2018-11-28T05:29:46.114Z,147.25
2018-11-28T05:32:44.897Z,167.60
2018-11-28T05:35:45.872Z,153.68
2018-11-28T05:38:43.456Z,167.30
2018-11-28T05:41:41.920Z,153.57
2018-11-28T05:44:41.041Z,157.47
2018-11-28T05:47:42.715Z,142.30
2018-11-28T05:50:42.292Z,127.53
2018-11-28T05:53:40.418Z,131.32
2018-11-28T05:56:41.667Z,132.93
2018-11-28T05:59:38.407Z,125.40
2018-11-28T06:02:36.536Z,126.00
2018-11-28T06:05:34.085Z,129.72
2018-11-28T06:08:30.845Z,123.10
2018-11-28T06:11:28.295Z,116.00
2018-11-28T06:14:28.377Z,99.97
2018-11-28T06:17:25.432Z,103.35
2018-11-28T06:27:47.971Z,105.07
2018-11-28T06:30:45.057Z,117.30
2018-11-28T06:33:41.715Z,108.75
2018-11-28T06:36:38.476Z,109.25
2018-11-28T06:39:35.480Z,111.62
2018-11-28T06:42:43.128Z,92.78
2018-11-28T06:45:40.957Z,131.43
2018-11-28T06:48:40.831Z,89.75
2018-11-28T06:51:37.555Z,95.87
2018-11-28T06:54:34.776Z,99.58
2018-11-28T06:57:33.427Z,91.70
2018-11-28T07:00:41.358Z,94.62
2018-11-28T07:03:40.677Z,88.80
2018-11-28T07:06:38.301Z,85.62
2018-11-28T07:09:36.222Z,89.72
2018-11-28T07:12:40.287Z,95.97
2018-11-28T07:15:38.462Z,91.97
2018-11-28T07:19:12.432Z,92.75
2018-11-28T07:22:11.188Z,92.20
2018-11-28T07:25:11.398Z,88.22
2018-11-28T07:28:12.264Z,93.95
2018-11-28T07:31:13.242Z,100.00
2018-11-28T07:34:14.331Z,95.17
2018-11-28T07:37:16.464Z,90.07
2018-11-28T07:40:24.804Z,85.75
2018-11-28T07:43:25.958Z,84.10
2018-11-28T07:46:27.639Z,88.50
2018-11-28T07:49:26.508Z,84.10
2018-11-28T07:52:26.500Z,94.75
2018-11-28T07:55:28.249Z,91.47
2018-11-28T07:58:26.104Z,93.92
2018-11-28T08:01:30.109Z,80.12
2018-11-28T08:05:00.018Z,75.08
2018-11-28T08:08:07.708Z,81.42
2018-11-28T08:11:04.828Z,88.05
2018-11-28T08:14:01.752Z,85.03
2018-11-28T08:16:59.821Z,83.33
2018-11-28T08:19:56.401Z,81.32
2018-11-28T08:22:53.216Z,76.25
2018-11-28T08:25:50.769Z,70.75
2018-11-28T08:28:54.273Z,75.67
2018-11-28T08:31:47.831Z,70.00
2018-11-28T08:34:44.927Z,81.85
2018-11-28T08:37:42.243Z,70.20
2018-11-28T08:40:39.917Z,89.55
2018-11-28T08:43:44.095Z,78.80
2018-11-28T08:46:51.893Z,78.37
2018-11-28T08:49:55.383Z,86.92
2018-11-28T08:53:08.813Z,90.17
2018-11-28T08:56:09.480Z,83.37
2018-11-28T08:59:13.949Z,90.35
2018-11-28T09:02:17.971Z,81.35
2018-11-28T09:05:27.845Z,85.25
2018-11-28T09:08:26.765Z,98.37
2018-11-28T09:11:29.673Z,76.87
2018-11-28T09:14:23.660Z,89.95
2018-11-28T09:17:20.931Z,86.97
2018-11-28T09:20:23.074Z,87.25
2018-11-28T09:23:22.143Z,97.00
2018-11-28T09:26:24.167Z,98.72
2018-11-28T09:29:22.165Z,91.63
2018-11-28T09:32:28.788Z,84.87
2018-11-28T09:35:25.723Z,89.60
2018-11-28T09:38:22.217Z,101.15
2018-11-28T09:41:22.244Z,91.57
2018-11-28T09:44:18.471Z,93.72
2018-11-28T09:47:40.878Z,104.45
2018-11-28T09:50:37.646Z,100.60
2018-11-28T09:53:34.176Z,104.40
2018-11-28T09:56:30.802Z,87.00
2018-11-28T09:59:37.596Z,89.25
2018-11-28T10:02:33.113Z,90.50
2018-11-28T10:05:39.374Z,86.67
2018-11-28T10:08:52.036Z,97.65
2018-11-28T10:12:07.959Z,95.55
2018-11-28T10:15:12.696Z,84.60
2018-11-28T10:18:10.107Z,84.13
2018-11-28T10:21:20.155Z,87.00
2018-11-28T10:24:21.447Z,96.25
2018-11-28T10:27:18.094Z,89.42
2018-11-28T10:30:47.398Z,86.02
2018-11-28T10:33:47.614Z,86.25
2018-11-28T10:36:42.720Z,87.08
2018-11-28T10:39:41.116Z,103.15
2018-11-28T10:42:41.657Z,88.37
2018-11-28T10:45:42.289Z,103.38
2018-11-28T10:48:42.851Z,97.78
2018-11-28T10:51:43.663Z,96.97
2018-11-28T10:54:41.360Z,98.17
2018-11-28T10:57:40.980Z,103.55
2018-11-28T11:00:57.482Z,106.60
2018-11-28T11:04:12.425Z,95.28
2018-11-28T11:07:31.818Z,93.62
2018-11-28T11:10:48.851Z,99.45
2018-11-28T11:14:04.061Z,111.52
2018-11-28T11:17:04.275Z,108.25
2018-11-28T11:20:14.264Z,108.25
2018-11-28T11:23:14.932Z,98.70
2018-11-28T11:26:15.437Z,101.58
2018-11-28T11:29:29.742Z,114.03
2018-11-28T11:32:52.929Z,119.62
2018-11-28T11:35:56.701Z,121.95
2018-11-28T11:39:24.167Z,118.33
2018-11-28T11:42:26.306Z,128.38
2018-11-28T11:45:25.517Z,142.72
2018-11-28T11:48:32.407Z,143.17
2018-11-28T11:51:29.570Z,150.82
2018-11-28T11:54:31.302Z,133.82
2018-11-28T11:57:31.732Z,123.62
2018-11-28T12:00:34.862Z,138.62
2018-11-28T12:03:34.781Z,122.67
2018-11-28T12:06:35.048Z,127.42
2018-11-28T12:09:32.760Z,136.22
2018-11-28T12:12:30.597Z,129.70
2018-11-28T12:15:28.808Z,132.45
2018-11-28T12:18:26.461Z,141.68
2018-11-28T12:21:23.369Z,137.18
2018-11-28T12:24:29.579Z,133.40
2018-11-28T12:27:27.470Z,139.55
2018-11-28T12:30:24.285Z,146.00
2018-11-28T12:33:21.060Z,152.02
2018-11-28T12:36:17.632Z,143.20
2018-11-28T12:39:18.310Z,153.27
2018-11-28T12:42:16.114Z,156.78
2018-11-28T12:45:17.842Z,143.43
2018-11-28T12:48:14.199Z,140.43
2018-11-28T12:51:11.355Z,138.72
2018-11-28T12:54:08.455Z,136.57
2018-11-28T12:57:07.123Z,150.53
2018-11-28T13:00:03.985Z,159.27
2018-11-28T13:03:01.710Z,154.97
2018-11-28T13:05:58.623Z,144.55
2018-11-28T13:08:55.425Z,142.65
2018-11-28T13:11:52.602Z,144.43
2018-11-28T13:14:50.391Z,153.95
2018-11-28T13:17:58.935Z,141.95
2018-11-28T13:21:06.025Z,144.17
2018-11-28T13:24:14.382Z,138.30
2018-11-28T13:27:24.352Z,141.57
2018-11-28T13:30:39.544Z,135.35
2018-11-28T13:33:36.462Z,142.37
2018-11-28T13:36:32.689Z,134.32
2018-11-28T13:39:30.133Z,150.78
2018-11-28T13:42:29.338Z,148.02
2018-11-28T13:45:31.451Z,143.50
2018-11-28T13:48:28.724Z,153.75
2018-11-28T13:51:25.871Z,155.35
2018-11-28T13:54:22.146Z,161.37
2018-11-28T13:57:18.942Z,159.07
2018-11-28T14:00:16.366Z,168.15
2018-11-28T14:03:13.228Z,163.60
2018-11-28T14:06:10.416Z,161.40
2018-11-28T14:09:07.654Z,153.38
2018-11-28T14:12:05.138Z,162.43
2018-11-28T14:15:02.331Z,166.05
2018-11-28T14:18:11.672Z,181.28
2018-11-28T14:21:15.089Z,225.50
2018-11-28T14:24:16.758Z,230.52
2018-11-28T14:27:20.003Z,231.28
2018-11-28T14:30:23.779Z,214.65
2018-11-28T14:33:27.043Z,220.85
2018-11-28T14:36:29.181Z,210.60
2018-11-28T14:39:26.219Z,207.62
2018-11-28T14:42:23.172Z,214.88
2018-11-28T14:45:24.175Z,224.10
2018-11-28T14:48:20.754Z,203.45
2018-11-28T14:51:17.720Z,186.35
2018-11-28T14:54:14.968Z,194.82
2018-11-28T14:57:11.830Z,208.15
2018-11-28T15:00:09.285Z,204.97
2018-11-28T15:03:11.741Z,203.80
2018-11-28T15:06:35.021Z,172.07
2018-11-28T15:09:50.247Z,194.72
2018-11-28T15:12:47.071Z,178.87
2018-11-28T15:15:43.658Z,166.68
2018-11-28T15:18:40.674Z,175.60
2018-11-28T15:21:38.364Z,176.35
2018-11-28T15:24:34.771Z,159.10
2018-11-28T15:27:32.155Z,189.00
2018-11-28T15:30:29.373Z,187.22
2018-11-28T15:33:26.990Z,149.00
2018-11-28T15:36:24.179Z,158.57
2018-11-28T15:39:21.952Z,163.15
2018-11-28T15:42:19.363Z,158.18
2018-11-28T15:45:17.758Z,155.82
2018-11-28T15:48:15.541Z,144.75
2018-11-28T15:51:12.992Z,167.45
2018-11-28T15:54:10.050Z,155.72
2018-11-28T15:57:08.780Z,159.45
2018-11-28T16:00:06.572Z,160.45
2018-11-28T16:03:04.317Z,163.87
2018-11-28T16:06:02.161Z,155.97
2018-11-28T16:08:59.297Z,159.43
2018-11-28T16:11:56.733Z,151.65
2018-11-28T16:14:55.922Z,154.53
2018-11-28T16:17:53.333Z,152.27
2018-11-28T16:20:53.082Z,138.45
2018-11-28T16:23:50.145Z,155.85
2018-11-28T16:26:47.468Z,147.55
2018-11-28T16:29:45.465Z,149.45
2018-11-28T16:32:49.792Z,154.30
2018-11-28T16:35:46.528Z,156.93
2018-11-28T16:38:46.516Z,165.22
2018-11-28T16:41:52.382Z,178.07
2018-11-28T16:44:54.185Z,166.15
2018-11-28T16:47:55.999Z,158.07
2018-11-28T16:50:56.380Z,159.85
2018-11-28T16:53:58.070Z,169.85
2018-11-28T16:56:55.085Z,157.15
2018-11-28T16:59:51.132Z,155.95
2018-11-28T17:02:48.601Z,150.72
2018-11-28T17:05:45.236Z,149.85
2018-11-28T17:08:42.080Z,150.22
2018-11-28T17:11:38.920Z,138.57
2018-11-28T17:14:35.478Z,156.30
2018-11-28T17:17:31.625Z,145.05
2018-11-28T17:20:29.275Z,141.40
2018-11-28T17:23:25.371Z,136.82
2018-11-28T17:26:24.104Z,147.40
2018-11-28T17:29:24.856Z,145.12
2018-11-28T17:32:26.290Z,147.40
2018-11-28T17:35:27.891Z,134.67
2018-11-28T17:38:32.125Z,137.47
2018-11-28T17:41:33.861Z,147.57
2018-11-28T17:44:33.906Z,154.32
2018-11-28T17:47:35.184Z,143.47
2018-11-28T17:50:36.417Z,152.95
2018-11-28T17:53:37.339Z,144.32
2018-11-28T17:56:38.566Z,156.52
2018-11-28T17:59:39.013Z,162.30
2018-11-28T18:02:40.220Z,164.50
2018-11-28T18:05:42.173Z,160.35
2018-11-28T18:08:42.032Z,163.15
2018-11-28T18:11:43.008Z,154.32
2018-11-28T18:14:42.798Z,158.63
2018-11-28T18:17:44.795Z,152.72
2018-11-28T18:20:50.380Z,152.45
2018-11-28T18:23:51.869Z,140.20
2018-11-28T18:26:54.252Z,149.02
2018-11-28T18:29:56.172Z,140.45
2018-11-28T18:32:58.217Z,151.50
2018-11-28T18:36:02.853Z,141.60
2018-11-28T18:39:04.329Z,144.20
2018-11-28T18:42:06.276Z,144.20
2018-11-28T18:45:07.203Z,144.13
2018-11-28T18:48:11.359Z,145.17
2018-11-28T18:51:16.415Z,149.70
2018-11-28T18:54:17.615Z,157.70
2018-11-28T18:57:19.189Z,160.80
2018-11-28T19:00:28.677Z,175.93
2018-11-28T19:03:30.262Z,166.05
2018-11-28T19:06:31.962Z,143.65
2018-11-28T19:09:45.421Z,148.30
2018-11-28T19:12:51.517Z,169.75
2018-11-28T19:15:48.168Z,200.10
2018-11-28T19:18:44.506Z,245.00
2018-11-28T19:21:44.174Z,231.55
2018-11-28T19:24:40.776Z,212.02
2018-11-28T19:27:37.537Z,203.60
2018-11-28T19:30:52.264Z,237.88
2018-11-28T19:33:50.649Z,243.60
2018-11-28T19:36:47.008Z,232.22
2018-11-28T19:39:43.337Z,212.72
2018-11-28T19:42:39.836Z,207.32
2018-11-28T19:45:36.628Z,191.15
2018-11-28T19:48:36.320Z,200.28
2018-11-28T19:51:35.675Z,205.07
2018-11-28T19:54:32.301Z,228.22
2018-11-28T19:57:29.020Z,201.12
2018-11-28T20:00:25.978Z,185.15
2018-11-28T20:03:22.639Z,199.72
2018-11-28T20:06:19.465Z,191.82
2018-11-28T20:09:26.479Z,175.95
2018-11-28T20:12:23.550Z,179.63
2018-11-28T20:15:21.216Z,181.67
2018-11-28T20:18:18.552Z,177.15
2018-11-28T20:21:15.574Z,173.68
2018-11-28T20:24:12.454Z,179.80
2018-11-28T20:27:09.588Z,173.90
2018-11-28T20:30:05.371Z,176.80
2018-11-28T20:33:02.122Z,178.75
2018-11-28T20:35:59.477Z,208.90
2018-11-28T20:38:55.879Z,190.18
2018-11-28T20:41:52.535Z,205.75
2018-11-28T20:44:49.303Z,208.72
2018-11-28T20:47:45.819Z,192.75
2018-11-28T20:50:42.552Z,199.00
2018-11-28T20:53:38.764Z,168.97
2018-11-28T20:56:35.256Z,169.50
2018-11-28T20:59:31.509Z,169.75
2018-11-28T21:02:28.145Z,182.30
2018-11-28T21:05:24.816Z,180.27
2018-11-28T21:08:21.110Z,167.68
2018-11-28T21:11:17.817Z,169.28
2018-11-28T21:14:14.247Z,175.18
2018-11-28T21:17:10.337Z,168.47
2018-11-28T21:20:07.166Z,171.10
2018-11-28T21:23:04.404Z,199.87
2018-11-28T21:26:01.086Z,171.98
2018-11-28T21:28:56.946Z,163.32
2018-11-28T21:31:53.419Z,176.07
2018-11-28T21:34:51.142Z,165.15
2018-11-28T21:37:47.787Z,170.82
2018-11-28T21:40:44.377Z,162.82
2018-11-28T21:43:41.498Z,157.05
2018-11-28T21:46:37.971Z,156.47
2018-11-28T21:49:34.549Z,156.30
2018-11-28T21:52:31.375Z,155.20
2018-11-28T21:55:34.930Z,166.40
2018-11-28T21:58:31.622Z,159.78
2018-11-28T22:01:28.496Z,168.45
2018-11-28T22:04:24.926Z,194.00
2018-11-28T22:07:21.527Z,194.15
2018-11-28T22:10:24.503Z,178.85
2018-11-28T22:13:21.566Z,195.45
2018-11-28T22:16:18.207Z,182.15
2018-11-28T22:19:14.655Z,181.18
2018-11-28T22:22:11.441Z,215.10
2018-11-28T22:25:08.123Z,194.70
2018-11-28T22:28:05.826Z,173.05
2018-11-28T22:31:02.479Z,197.22
2018-11-28T22:33:59.265Z,192.77
2018-11-28T22:36:56.024Z,189.03
2018-11-28T22:39:52.878Z,186.03
2018-11-28T22:42:49.402Z,198.53
2018-11-28T22:45:45.470Z,187.97
2018-11-28T22:48:42.091Z,191.37
2018-11-28T22:51:39.664Z,192.82
2018-11-28T22:54:36.381Z,194.22
2018-11-28T22:57:32.620Z,196.00
2018-11-28T23:00:50.072Z,213.92
2018-11-28T23:03:46.445Z,213.20
2018-11-28T23:06:43.165Z,188.55
2018-11-28T23:09:39.563Z,192.22
2018-11-28T23:12:36.521Z,216.70
2018-11-28T23:15:35.330Z,202.43
2018-11-28T23:18:31.767Z,202.80
2018-11-28T23:21:28.407Z,220.15
2018-11-28T23:24:25.088Z,201.88
2018-11-28T23:27:21.131Z,215.25
2018-11-28T23:30:24.813Z,218.05
2018-11-28T23:33:21.197Z,245.57
2018-11-28T23:36:18.549Z,255.90
2018-11-28T23:39:14.837Z,266.77
2018-11-28T23:42:11.185Z,291.93
2018-11-28T23:45:08.193Z,313.18
2018-11-28T23:48:04.599Z,320.82
2018-11-28T23:51:01.732Z,370.60
2018-11-28T23:53:58.075Z,370.63
2018-11-28T23:56:53.924Z,358.93
2018-11-28T23:59:50.895Z,364.85
